Flight Track Log - Related Links

Times and Time Zones

All times are in EDT time to prevent confusion due to time zone crossing. See the SWA378 flight status page for this flight to view local times or setup timezone preferences in your user account.


Time Position Orientation Groundspeed Altitude Reporting Facility
EDT Latitude Longitude Course Direction KTS MPH feet Rate Location/Type
Wed 06:24:27 PM 33.6333 -84.4667 239° Southwest 166 191 2,700  Level Atlanta TRACON
Wed 06:25:27 PM 33.6000 -84.5333 239° Southwest 222 255 4,600 2,286 Climbing Atlanta TRACON
Wed 06:26:33 PM 33.5500 -84.5833 220° Southwest 290 334 7,500 2,834 Climbing Atlanta TRACON
Wed 06:28:46 PM 33.4575 -84.4347 127° Southeast 308 354 14,000 2,984 Climbing Atlanta Center
Wed 06:29:46 PM 33.4578 -84.3103 90° East 348 400 17,100 3,050 Climbing Atlanta Center
Wed 06:30:46 PM 33.4936 -84.1833 71° East 367 422 20,100 2,750 Climbing Atlanta Center
Wed 06:31:46 PM 33.5439 -84.0661 63° Northeast 373 429 22,600 1,450 Climbing Atlanta Center
Wed 06:32:46 PM 33.5939 -83.9442 64° Northeast 388 447 23,000 250 Climbing Atlanta Center
Wed 06:33:46 PM 33.6250 -83.8167 74° East 400 460 23,100 1,200 Climbing Atlanta Center
Wed 06:34:46 PM 33.6517 -83.6844 76° East 392 451 25,400 2,200 Climbing Atlanta Center
Wed 06:35:46 PM 33.6953 -83.5544 68° East 404 465 27,500 1,850 Climbing Atlanta Center
Wed 06:36:46 PM 33.7467 -83.4242 65° Northeast 419 482 29,100 1,750 Climbing Atlanta Center
Wed 06:37:46 PM 33.8003 -83.2964 63° Northeast 426 490 31,000 1,900 Climbing Atlanta Center
Wed 06:38:46 PM 33.8536 -83.1633 64° Northeast 432 497 32,900 1,000 Climbing Atlanta Center
Wed 06:39:46 PM 33.9092 -83.0275 64° Northeast 437 503 33,000 50 Climbing Atlanta Center
Wed 06:40:46 PM 33.9622 -82.8967 64° Northeast 437 503 33,000  Level Atlanta Center
Wed 06:41:46 PM 34.0131 -82.7633 65° Northeast 437 503 33,000 500 Level Atlanta Center
Wed 06:42:46 PM 34.0658 -82.6294 65° Northeast 437 503 34,000 800 Climbing Atlanta Center
Wed 06:43:46 PM 34.1125 -82.5083 65° Northeast 437 503 34,600 1,050 Climbing Atlanta Center
Wed 06:44:46 PM 34.1669 -82.3717 64° Northeast 442 509 36,100 1,300 Climbing Atlanta Center
Wed 06:45:46 PM 34.2192 -82.2350 65° Northeast 442 509 37,200 900 Climbing Atlanta Center
Wed 06:46:46 PM 34.2797 -82.0956 62° Northeast 447 514 37,900 800 Climbing Atlanta Center
Wed 06:47:46 PM 34.3464 -81.9656 58° Northeast 452 520 38,800 550 Climbing Atlanta Center
Wed 06:48:46 PM 34.4150 -81.8281 59° Northeast 463 533 39,000 100 Climbing Atlanta Center
Wed 06:49:46 PM 34.4817 -81.6978 58° Northeast 463 533 39,000  Level Atlanta Center
Wed 06:50:46 PM 34.5456 -81.5622 60° Northeast 458 527 39,000  Level Atlanta Center
Wed 06:51:46 PM 34.6119 -81.4317 58° Northeast 458 527 39,000  Level Atlanta Center
Wed 06:52:46 PM 34.6839 -81.2931 58° Northeast 452 520 39,000  Level Atlanta Center
Wed 06:53:46 PM 34.7475 -81.1544 61° Northeast 457 526 39,000  Level Atlanta Center
Wed 06:54:46 PM 34.8133 -81.0231 59° Northeast 452 520 39,000  Level Atlanta Center
Wed 06:55:46 PM 34.8767 -80.8892 60° Northeast 452 520 39,000  Level Atlanta Center
Wed 06:56:46 PM 34.9442 -80.7547 58° Northeast 457 526 39,000  Level Atlanta Center
Wed 06:57:46 PM 35.0092 -80.6206 59° Northeast 452 520 39,000  Level Atlanta Center
Wed 06:59:42 PM 35.1325 -80.3564 60° Northeast 464 534 39,000  Level Washington Center
Wed 07:00:43 PM 35.2006 -80.2206 58° Northeast 456 525 39,000 -454 Level Washington Center
Wed 07:01:41 PM 35.2644 -80.0794 61° Northeast 461 531 38,100 -958 Descending Washington Center
Wed 07:02:42 PM 35.3319 -79.9456 58° Northeast 463 533 37,100 -541 Descending Washington Center
Wed 07:03:43 PM 35.3789 -79.8031 68° East 452 520 37,000 -397 Descending Washington Center
Wed 07:04:43 PM 35.4214 -79.6575 70° East 452 520 36,300 -1,300 Descending Washington Center
Wed 07:05:43 PM 35.4661 -79.5092 70° East 452 520 34,400 -1,412 Descending Washington Center
Wed 07:06:42 PM 35.5056 -79.3811 69° East 452 520 33,500 -950 Descending Washington Center
Wed 07:07:43 PM 35.5478 -79.2350 70° East 452 520 32,500 -1,041 Descending Washington Center
Wed 07:08:43 PM 35.5919 -79.0811 71° East 441 507 31,400 -1,041 Descending Washington Center
Wed 07:09:44 PM 35.6336 -78.9372 70° East 441 507 30,400 -1,017 Descending Washington Center
Wed 07:10:41 PM 35.6731 -78.7958 71° East 441 507 29,400 -950 Descending Washington Center
Wed 07:11:44 PM 35.7097 -78.6694 70° East 441 507 28,500 -893 Descending Washington Center
Wed 07:12:42 PM 35.7508 -78.5275 70° East 441 507 27,600 -966 Descending Washington Center
Wed 07:13:42 PM 35.7919 -78.3781 71° East 441 507 26,600 -992 Descending Washington Center
Wed 07:14:43 PM 35.8306 -78.2358 71° East 441 507 25,600 -1,008 Descending Washington Center
Wed 07:15:41 PM 35.8714 -78.0886 71° East 441 507 24,600 -1,008 Descending Washington Center
Wed 07:16:42 PM 35.9117 -77.9464 71° East 441 507 23,600 -992 Descending Washington Center
Wed 07:17:42 PM 35.9519 -77.8064 70° East 441 507 22,600 -1,000 Descending Washington Center
Wed 07:18:42 PM 35.9942 -77.6689 69° East 436 502 21,600 -793 Descending Washington Center
Wed 07:19:43 PM 36.0544 -77.5472 58° Northeast 423 487 21,000 -303 Descending Washington Center
Wed 07:20:41 PM 36.1128 -77.4225 60° Northeast 411 473 21,000  Level Washington Center
Wed 07:21:08 PM 36.1389 -77.3642 61° Northeast 416 479 21,000  Level Washington Center
Wed 07:21:42 PM 36.1753 -77.2903 59° Northeast 404 465 21,000  Level Washington Center
Wed 07:22:09 PM 36.2033 -77.2317 59° Northeast 420 483 21,000 -100 Level Washington Center
Wed 07:22:42 PM 36.2356 -77.1628 60° Northeast 409 471 20,900 -1,000 Descending Washington Center
Wed 07:23:09 PM 36.2611 -77.1092 59° Northeast 421 484 20,000 -1,935 Descending Washington Center
Wed 07:23:44 PM 36.2933 -77.0403 60° Northeast 409 471 18,900 -2,129 Descending Washington Center
Wed 07:24:11 PM 36.3189 -76.9867 59° Northeast 415 478 17,800 -2,421 Descending Washington Center
Wed 07:24:41 PM 36.3489 -76.9175 62° Northeast 409 471 16,600 -2,300 Descending Washington Center
Wed 07:25:11 PM 36.3789 -76.8689 53° Northeast 406 467 15,500 -2,300 Descending Washington Center
Wed 07:25:41 PM 36.4211 -76.8103 48° Northeast 404 465 14,300 -2,557 Descending Washington Center
Wed 07:26:12 PM 36.4611 -76.7619 44° Northeast 397 457 12,900 -2,400 Descending Washington Center
Wed 07:26:41 PM 36.4972 -76.7133 47° Northeast 393 452 11,900 -1,548 Descending Washington Center
Wed 07:27:14 PM 36.5392 -76.6700 40° Northeast 383 441 11,300 -1,000 Descending Washington Center
Wed 07:27:41 PM 36.5731 -76.6264 46° Northeast 380 437 10,900 -492 Descending Washington Center
Wed 07:28:15 PM 36.6108 -76.5856 41° Northeast 325 374 10,800 -689 Descending Washington Center
Wed 07:28:42 PM 36.6425 -76.5497 42° Northeast 353 406 10,200 -1,345 Descending Washington Center
Wed 07:29:13 PM 36.6783 -76.5139 39° Northeast 318 366 9,500 -1,279 Descending Washington Center
Wed 07:29:43 PM 36.7078 -76.4806 42° Northeast 322 371 8,900 -1,377 Descending Washington Center
Wed 07:30:14 PM 36.7456 -76.4447 37° Northeast 306 352 8,100 -1,345 Descending Washington Center
Wed 07:30:41 PM 36.7769 -76.4192 33° Northeast 306 352 7,600 -1,333 Descending Washington Center
Wed 07:31:17 PM 36.8169 -76.3883 32° Northeast 306 352 6,700 -1,468 Descending Washington Center
Wed 07:32:15 PM 36.8881 -76.3344 31° Northeast 303 349 5,300 -857 Descending Washington Center
Wed 07:33:16 PM 36.9553 -76.2806 33° Northeast 260 299 5,000 -197 Descending Washington Center
Wed 07:34:17 PM 37.0139 -76.2344 32° Northeast 245 282 4,900 -98 Descending Washington Center

Login

Don't have an account? Register now (free) for customized features, flight alerts, and more!